Time,TemperatureF,DewpointF,PressureIn,WindDirection,WindDirectionDegrees,WindSpeedMPH,WindSpeedGustMPH,Humidity,HourlyPrecipIn,Conditions,Clouds,dailyrainin,SolarRadiationWatts/m^2,SoftwareType,DateUTC
2013-09-11 00:44:00,75.0,71.0,-100.00,WSW,241,0.0,0.0,86,0.00,,,0.00,0.000000,,2013-09-11 04:44:00,
2013-09-11 00:54:00,75.0,71.0,-100.00,WSW,241,0.0,0.0,86,0.00,,,0.00,0.000000,,2013-09-11 04:54:00,
2013-09-11 01:03:00,75.0,71.0,-100.00,WSW,241,0.0,0.0,86,0.00,,,0.00,0.000000,,2013-09-11 05:03:00,
2013-09-11 01:43:00,74.0,70.0,-100.00,WNW,286,0.0,0.0,88,0.00,,,0.00,0.000000,,2013-09-11 05:43:00,
2013-09-11 01:53:00,74.0,70.0,-100.00,WNW,286,0.0,0.0,88,0.00,,,0.00,0.000000,,2013-09-11 05:53:00,
2013-09-11 02:02:00,74.0,70.0,-100.00,WNW,286,0.0,0.0,88,0.00,,,0.00,0.000000,,2013-09-11 06:02:00,
2013-09-11 02:42:00,73.0,71.0,-100.00,NNW,340,0.0,0.0,92,0.00,,,0.00,0.000000,,2013-09-11 06:42:00,
2013-09-11 02:52:00,73.0,71.0,-100.00,NNW,340,0.0,0.0,92,0.00,,,0.00,0.000000,,2013-09-11 06:52:00,
2013-09-11 03:02:00,73.0,71.0,-100.00,NNW,340,0.0,0.0,92,0.00,,,0.00,0.000000,,2013-09-11 07:02:00,
2013-09-11 03:42:00,73.0,70.0,-100.00,SSW,193,0.0,0.0,89,0.00,,,0.00,0.000000,,2013-09-11 07:42:00,
2013-09-11 03:53:00,73.0,70.0,-100.00,SSW,193,0.0,0.0,89,0.00,,,0.00,0.000000,,2013-09-11 07:53:00,
2013-09-11 04:02:00,73.0,70.0,-100.00,SSW,193,0.0,0.0,89,0.00,,,0.00,0.000000,,2013-09-11 08:02:00,
2013-09-11 04:42:00,72.0,70.0,-100.00,WSW,244,0.0,0.0,93,0.00,,,0.00,0.000000,,2013-09-11 08:42:00,
2013-09-11 04:52:00,72.0,70.0,-100.00,WSW,244,0.0,0.0,93,0.00,,,0.00,0.000000,,2013-09-11 08:52:00,
2013-09-11 05:02:00,72.0,70.0,-100.00,WSW,244,0.0,0.0,93,0.00,,,0.00,0.000000,,2013-09-11 09:02:00,
2013-09-11 05:43:00,70.0,69.0,-100.00,WSW,240,0.0,0.0,97,0.00,,,0.00,0.000000,,2013-09-11 09:43:00,
2013-09-11 05:53:00,70.0,69.0,-100.00,WSW,240,0.0,0.0,97,0.00,,,0.00,0.000000,,2013-09-11 09:53:00,
2013-09-11 06:03:00,70.0,69.0,-100.00,WSW,240,0.0,0.0,97,0.00,,,0.00,0.000000,,2013-09-11 10:03:00,
2013-09-11 06:43:00,69.0,68.0,-100.00,WSW,256,0.0,0.0,97,0.00,,,0.00,0.000000,,2013-09-11 10:43:00,
2013-09-11 06:53:00,69.0,68.0,-100.00,WSW,256,0.0,0.0,97,0.00,,,0.00,0.000000,,2013-09-11 10:53:00,
2013-09-11 07:03:00,69.0,68.0,-100.00,WSW,256,0.0,0.0,97,0.00,,,0.00,0.000000,,2013-09-11 11:03:00,
2013-09-11 07:42:00,69.0,68.0,-100.00,South,178,0.0,0.0,98,0.00,,,-99.99,0.000000,,2013-09-11 11:42:00,
2013-09-11 07:52:00,69.0,68.0,-100.00,South,178,0.0,0.0,98,0.00,,,-99.99,0.000000,,2013-09-11 11:52:00,
2013-09-11 08:01:00,69.0,68.0,-100.00,South,178,0.0,0.0,98,0.00,,,-99.99,0.000000,,2013-09-11 12:01:00,
2013-09-11 08:42:00,69.0,68.0,-100.00,South,177,0.0,0.0,97,0.00,,,-99.99,14.000000,,2013-09-11 12:42:00,
2013-09-11 08:52:00,69.0,68.0,-100.00,South,177,0.0,0.0,97,0.00,,,-99.99,14.000000,,2013-09-11 12:52:00,
2013-09-11 09:02:00,69.0,68.0,-100.00,South,177,0.0,0.0,97,0.00,,,-99.99,14.000000,,2013-09-11 13:02:00,
2013-09-11 09:42:00,73.0,70.0,-100.00,ESE,114,0.0,0.0,90,0.00,,,-99.99,101.000000,,2013-09-11 13:42:00,
2013-09-11 09:52:00,73.0,70.0,-100.00,ESE,114,0.0,0.0,90,0.00,,,-99.99,101.000000,,2013-09-11 13:52:00,
2013-09-11 10:02:00,73.0,70.0,-100.00,ESE,114,0.0,0.0,90,0.00,,,-99.99,101.000000,,2013-09-11 14:02:00,
2013-09-11 10:42:00,79.0,69.0,-100.00,WSW,239,0.0,0.0,72,0.00,,,0.00,325.000000,,2013-09-11 14:42:00,
2013-09-11 10:52:00,79.0,69.0,-100.00,WSW,239,0.0,0.0,72,0.00,,,0.00,325.000000,,2013-09-11 14:52:00,
2013-09-11 11:02:00,79.0,69.0,-100.00,WSW,239,0.0,0.0,72,0.00,,,0.00,325.000000,,2013-09-11 15:02:00,
2013-09-11 11:43:00,81.0,71.0,-100.00,NNW,337,0.0,0.0,71,0.00,,,0.00,458.000000,,2013-09-11 15:43:00,
2013-09-11 11:54:00,81.0,71.0,-100.00,NNW,337,0.0,0.0,71,0.00,,,0.00,458.000000,,2013-09-11 15:54:00,
2013-09-11 12:03:00,81.0,71.0,-100.00,NNW,337,0.0,0.0,71,0.00,,,0.00,458.000000,,2013-09-11 16:03:00,
2013-09-11 12:43:00,84.0,68.0,-100.00,WSW,256,0.0,0.0,59,0.00,,,0.00,540.000000,,2013-09-11 16:43:00,
2013-09-11 12:53:00,84.0,68.0,-100.00,WSW,256,0.0,0.0,59,0.00,,,0.00,540.000000,,2013-09-11 16:53:00,
2013-09-11 13:03:00,84.0,68.0,-100.00,WSW,256,0.0,0.0,59,0.00,,,0.00,540.000000,,2013-09-11 17:03:00,
2013-09-11 13:43:00,86.0,70.0,-100.00,NNE,31,0.0,0.0,60,0.00,,,0.00,677.000000,,2013-09-11 17:43:00,
2013-09-11 13:52:00,86.0,70.0,-100.00,NNE,31,0.0,0.0,60,0.00,,,0.00,677.000000,,2013-09-11 17:52:00,
2013-09-11 14:02:00,86.0,70.0,-100.00,NNE,31,0.0,0.0,60,0.00,,,0.00,677.000000,,2013-09-11 18:02:00,
2013-09-11 14:42:00,87.0,70.0,-100.00,NNE,16,0.0,0.0,57,0.00,,,0.00,603.000000,,2013-09-11 18:42:00,
2013-09-11 14:52:00,87.0,70.0,-100.00,NNE,16,0.0,0.0,57,0.00,,,0.00,603.000000,,2013-09-11 18:52:00,
2013-09-11 15:01:00,87.0,70.0,-100.00,NNE,16,0.0,0.0,57,0.00,,,0.00,603.000000,,2013-09-11 19:01:00,
2013-09-11 15:42:00,90.0,68.0,-100.00,WNW,302,0.0,0.0,49,0.00,,,0.00,663.000000,,2013-09-11 19:42:00,
2013-09-11 15:53:00,90.0,68.0,-100.00,WNW,302,0.0,0.0,49,0.00,,,0.00,663.000000,,2013-09-11 19:53:00,
2013-09-11 16:02:00,90.0,68.0,-100.00,WNW,302,0.0,0.0,49,0.00,,,0.00,663.000000,,2013-09-11 20:02:00,
2013-09-11 16:42:00,90.0,66.0,-100.00,West,268,0.0,0.0,46,0.00,,,0.00,596.000000,,2013-09-11 20:42:00,
2013-09-11 16:52:00,90.0,66.0,-100.00,West,268,0.0,0.0,46,0.00,,,0.00,596.000000,,2013-09-11 20:52:00,
2013-09-11 17:02:00,90.0,66.0,-100.00,West,268,0.0,0.0,46,0.00,,,0.00,596.000000,,2013-09-11 21:02:00,
2013-09-11 17:05:00,87.0,70.0,-100.00,SSW,193,0.0,0.0,57,0.00,,,0.00,447.000000,,2013-09-11 21:05:00,
2013-09-11 17:44:00,87.0,70.0,-100.00,SSW,193,0.0,0.0,57,0.00,,,0.00,447.000000,,2013-09-11 21:44:00,
2013-09-11 17:54:00,87.0,70.0,-100.00,SSW,193,0.0,0.0,57,0.00,,,0.00,447.000000,,2013-09-11 21:54:00,
2013-09-11 18:43:00,85.0,68.0,-100.00,NNE,32,0.0,0.0,56,0.00,,,0.00,301.000000,,2013-09-11 22:43:00,
2013-09-11 18:54:00,85.0,68.0,-100.00,NNE,32,0.0,0.0,56,0.00,,,0.00,301.000000,,2013-09-11 22:54:00,
2013-09-11 19:03:00,85.0,68.0,-100.00,NNE,32,0.0,0.0,56,0.00,,,0.00,301.000000,,2013-09-11 23:03:00,
2013-09-11 19:42:00,82.0,68.0,-100.00,WSW,257,0.0,0.0,63,0.00,,,0.00,98.000000,,2013-09-11 23:42:00,
2013-09-11 19:53:00,82.0,68.0,-100.00,WSW,257,0.0,0.0,63,0.00,,,0.00,98.000000,,2013-09-11 23:53:00,
2013-09-11 20:01:00,82.0,68.0,-100.00,WSW,257,0.0,0.0,63,0.00,,,0.00,98.000000,,2013-09-12 00:01:00,
2013-09-11 20:42:00,77.0,69.0,-100.00,SW,226,0.0,0.0,77,0.00,,,0.00,9.000000,,2013-09-12 00:42:00,
2013-09-11 20:52:00,77.0,69.0,-100.00,SW,226,0.0,0.0,77,0.00,,,0.00,9.000000,,2013-09-12 00:52:00,
2013-09-11 21:01:00,77.0,69.0,-100.00,SW,226,0.0,0.0,77,0.00,,,0.00,9.000000,,2013-09-12 01:01:00,
2013-09-11 21:42:00,74.0,70.0,-100.00,SW,227,0.0,0.0,87,0.00,,,0.00,0.000000,,2013-09-12 01:42:00,
2013-09-11 21:52:00,74.0,70.0,-100.00,SW,227,0.0,0.0,87,0.00,,,0.00,0.000000,,2013-09-12 01:52:00,
2013-09-11 22:03:00,74.0,70.0,-100.00,SW,227,0.0,0.0,87,0.00,,,0.00,0.000000,,2013-09-12 02:03:00,
2013-09-11 22:52:00,73.0,70.0,-100.00,South,188,0.0,0.0,90,0.00,,,0.00,0.000000,,2013-09-12 02:52:00,
2013-09-11 23:02:00,73.0,70.0,-100.00,South,188,0.0,0.0,90,0.00,,,0.00,0.000000,,2013-09-12 03:02:00,
2013-09-11 23:05:00,71.0,68.0,-100.00,West,264,0.0,0.0,91,0.00,,,0.00,0.000000,,2013-09-12 03:05:00,
2013-09-11 23:45:00,71.0,68.0,-100.00,West,264,0.0,0.0,91,0.00,,,0.00,0.000000,,2013-09-12 03:45:00,
2013-09-11 23:55:00,71.0,68.0,-100.00,West,264,0.0,0.0,91,0.00,,,0.00,0.000000,,2013-09-12 03:55:00,